< Typhoon 197512 1975 Season Typhoon 197514 >
Typhoon 197513 (CORA)
General InformationTrack Information on Google Maps || Disaster Info.ResourceGoogle EarthGE AnimationAtom FeedGeoJSON
Detalied Best Track (Time Zone = UTC)
Year Month Day Hour Lat. Long. Pressure (hPa) Wind (kt) Class Image Chart
1975 9 29 12 8.6 138.4 1008 0 2 -- Chart
1975 9 29 18 8.7 137.6 1008 0 2 -- Chart
1975 9 30 00 9.1 137.0 1008 0 2 -- Chart
1975 9 30 06 9.9 136.4 1004 0 2 -- Chart
1975 9 30 12 11.0 135.6 1004 0 2 -- Chart
1975 9 30 18 12.1 134.7 1004 0 2 -- Chart
1975 10 1 00 13.1 133.9 1004 0 2 -- Chart
1975 10 1 06 14.1 132.9 1000 0 2 -- Chart
1975 10 1 12 14.9 132.2 1002 0 2 -- Chart
1975 10 1 18 16.3 132.1 1004 0 2 -- Chart
1975 10 2 00 17.3 131.7 1002 0 9 -- Chart
1975 10 2 06 18.3 131.6 1000 0 9 -- Chart
1975 10 2 12 19.3 131.2 998 0 9 -- Chart
1975 10 2 18 20.6 130.4 995 0 9 -- Chart
1975 10 3 00 21.7 129.6 985 0 9 -- Chart
1975 10 3 06 22.7 129.6 970 0 9 -- Chart
1975 10 3 12 23.7 129.3 960 0 9 -- Chart
1975 10 3 18 23.7 129.3 960 0 9 -- Chart
1975 10 4 00 26.0 129.7 945 0 9 -- Chart
1975 10 4 06 27.4 130.4 945 0 9 -- Chart
1975 10 4 12 29.0 131.3 945 0 9 -- Chart
1975 10 4 18 30.3 133.2 945 0 9 -- Chart
1975 10 5 00 31.6 135.6 945 0 9 -- Chart
1975 10 5 06 33.2 138.8 945 0 9 -- Chart
1975 10 5 12 34.2 142.5 950 0 9 -- Chart
1975 10 5 18 34.9 146.4 950 0 9 -- Chart
1975 10 6 00 36.0 150.4 955 0 9 -- Chart
1975 10 6 06 37.0 154.0 955 0 9 -- Chart
1975 10 6 12 38.4 157.5 960 0 9 -- Chart
1975 10 6 18 40.2 160.2 960 0 9 -- Chart
1975 10 7 00 41.5 163.0 960 0 6 -- Chart
1975 10 7 06 43.0 166.0 960 0 6 -- Chart
1975 10 7 12 44.0 167.0 964 0 6 -- Chart
1975 10 7 18 45.0 169.0 964 0 6 -- Chart
1975 10 8 00 45.0 170.0 968 0 6 -- Chart
1975 10 8 06 45.5 171.0 968 0 6 -- Chart
1975 10 8 12 46.3 172.3 968 0 6 -- Chart
1975 10 8 18 47.0 173.5 972 0 6 -- Chart
1975 10 9 00 48.0 175.0 976 0 6 -- Chart
1975 10 9 06 49.0 176.0 976 0 6 -- Chart
1975 10 9 12 50.5 177.0 976 0 6 -- Chart
1975 10 9 18 52.0 178.0 976 0 6 -- Chart
1975 10 10 00 50.0 181.0 974 0 6 -- Chart
Japan Meteorological Agency Best Track Data | Correction Date : 1991-07-17
< Typhoon 197512 1975 Season Typhoon 197514 >

Help